createdAt,value
2022-08-28T00:00:54.243Z,69.35
2022-08-28T00:01:54.228Z,69.05
2022-08-28T00:02:54.282Z,69.25
2022-08-28T00:03:54.221Z,69.65
2022-08-28T00:04:54.262Z,69.96
2022-08-28T00:05:54.189Z,69.15
2022-08-28T00:06:54.170Z,69.35
2022-08-28T00:07:54.167Z,69.35
2022-08-28T00:08:54.147Z,69.25
2022-08-28T00:09:54.137Z,69.15
2022-08-28T00:10:54.158Z,69.25
2022-08-28T00:11:54.118Z,69.49
2022-08-28T00:12:54.096Z,69.89
2022-08-28T00:13:54.112Z,69.89
2022-08-28T00:14:54.079Z,70.19
2022-08-28T00:15:54.139Z,69.89
2022-08-28T00:16:54.067Z,70.29
2022-08-28T00:17:54.042Z,70.59
2022-08-28T00:18:54.057Z,70.50
2022-08-28T00:19:54.031Z,70.29
2022-08-28T00:20:54.032Z,70.29
2022-08-28T00:21:54.022Z,70.19
2022-08-28T00:22:53.990Z,70.09
2022-08-28T00:23:53.973Z,69.99
2022-08-28T00:24:55.641Z,70.39
2022-08-28T00:25:53.985Z,70.79
2022-08-28T00:26:53.964Z,70.39
2022-08-28T00:27:55.070Z,69.79
2022-08-28T00:28:53.918Z,69.69
2022-08-28T00:29:53.923Z,70.29
2022-08-28T00:30:53.945Z,69.99
2022-08-28T00:31:53.910Z,70.09
2022-08-28T00:32:53.906Z,69.99
2022-08-28T00:33:53.876Z,69.89
2022-08-28T00:34:53.857Z,69.99
2022-08-28T00:35:53.850Z,69.99
2022-08-28T00:36:53.839Z,69.99
2022-08-28T00:37:53.848Z,69.89
2022-08-28T00:38:53.816Z,70.19
2022-08-28T00:39:53.870Z,69.79
2022-08-28T00:40:53.797Z,69.99
2022-08-28T00:41:57.772Z,70.09
2022-08-28T00:42:53.781Z,70.22
2022-08-28T00:43:53.779Z,70.32
2022-08-28T00:44:53.746Z,70.93
2022-08-28T00:45:53.751Z,70.73
2022-08-28T00:46:53.790Z,70.93
2022-08-28T00:47:53.726Z,70.62
2022-08-28T00:48:53.712Z,70.42
2022-08-28T00:49:53.683Z,71.44
2022-08-28T00:50:53.693Z,70.73
2022-08-28T00:51:54.698Z,70.83
2022-08-28T00:52:53.660Z,70.53
2022-08-28T00:53:56.733Z,71.06
2022-08-28T00:54:58.540Z,71.13
2022-08-28T00:55:53.637Z,70.93
2022-08-28T00:56:53.624Z,71.23
2022-08-28T00:57:53.608Z,70.73
2022-08-28T00:58:53.584Z,70.93
2022-08-28T00:59:54.555Z,71.13
2022-08-28T01:00:53.579Z,70.73
2022-08-28T01:01:53.597Z,70.62
2022-08-28T01:02:53.577Z,70.62
2022-08-28T01:03:53.530Z,70.90
2022-08-28T01:04:53.531Z,70.39
2022-08-28T01:05:53.527Z,70.29
2022-08-28T01:06:53.518Z,70.19
2022-08-28T01:07:53.493Z,70.29
2022-08-28T01:08:53.490Z,70.29
2022-08-28T01:09:53.480Z,70.50
2022-08-28T01:10:53.462Z,70.50
2022-08-28T01:11:53.450Z,70.39
2022-08-28T01:12:53.443Z,70.09
2022-08-28T01:13:53.433Z,70.19
2022-08-28T01:14:53.426Z,70.39
2022-08-28T01:15:53.431Z,70.19
2022-08-28T01:16:53.408Z,70.42
2022-08-28T01:17:53.382Z,71.03
2022-08-28T01:18:54.336Z,70.73
2022-08-28T01:19:53.365Z,71.03
2022-08-28T01:20:53.335Z,71.23
2022-08-28T01:21:53.355Z,71.44
2022-08-28T01:22:53.338Z,71.23
2022-08-28T01:23:53.327Z,71.23
2022-08-28T01:24:53.301Z,71.23
2022-08-28T01:25:53.290Z,71.03
2022-08-28T01:26:53.288Z,71.03
2022-08-28T01:27:53.279Z,71.23
2022-08-28T01:28:53.254Z,71.53
2022-08-28T01:29:53.260Z,71.26
2022-08-28T01:30:53.270Z,71.67
2022-08-28T01:31:53.226Z,72.17
2022-08-28T01:32:53.227Z,71.26
2022-08-28T01:33:53.196Z,71.17
2022-08-28T01:34:53.190Z,71.37
2022-08-28T01:35:53.182Z,71.37
2022-08-28T01:36:53.184Z,71.26
2022-08-28T01:37:53.178Z,71.26
2022-08-28T01:38:53.145Z,71.67
2022-08-28T01:39:53.153Z,71.47
2022-08-28T01:40:53.135Z,71.97
2022-08-28T01:41:53.123Z,71.67
2022-08-28T01:42:54.093Z,71.67
2022-08-28T01:43:53.125Z,71.57
2022-08-28T01:44:53.113Z,71.77
2022-08-28T01:45:53.228Z,71.87
2022-08-28T01:46:53.071Z,71.97
2022-08-28T01:47:53.055Z,72.11
2022-08-28T01:48:53.052Z,72.31
2022-08-28T01:49:53.026Z,72.61
2022-08-28T01:50:53.029Z,72.51
2022-08-28T01:51:54.756Z,72.81
2022-08-28T01:52:52.991Z,72.41
2022-08-28T01:53:52.990Z,72.31
2022-08-28T01:54:52.968Z,72.11
2022-08-28T01:55:52.956Z,72.11
2022-08-28T01:56:52.949Z,72.71
2022-08-28T01:57:52.978Z,72.51
2022-08-28T01:58:52.942Z,72.31
2022-08-28T01:59:52.933Z,72.31
2022-08-28T02:00:53.846Z,72.71
2022-08-28T02:01:52.958Z,72.41
2022-08-28T02:02:52.882Z,72.20
2022-08-28T02:03:53.066Z,72.51
2022-08-28T02:04:52.933Z,72.31
2022-08-28T02:05:52.862Z,72.44
2022-08-28T02:06:52.838Z,72.95
2022-08-28T02:07:52.833Z,73.18
2022-08-28T02:08:53.793Z,73.49
2022-08-28T02:09:52.804Z,73.65
2022-08-28T02:10:52.822Z,73.05
2022-08-28T02:11:52.797Z,73.05
2022-08-28T02:12:54.740Z,73.49
2022-08-28T02:13:52.784Z,73.58
2022-08-28T02:14:52.769Z,73.58
2022-08-28T02:15:52.811Z,73.79
2022-08-28T02:16:52.734Z,74.49
2022-08-28T02:17:52.718Z,74.19
2022-08-28T02:18:52.730Z,74.60
2022-08-28T02:19:52.752Z,74.49
2022-08-28T02:20:53.648Z,74.69
2022-08-28T02:21:52.679Z,74.60
2022-08-28T02:22:52.679Z,74.40
2022-08-28T02:23:52.685Z,73.79
2022-08-28T02:24:52.662Z,74.09
2022-08-28T02:25:52.657Z,74.84
2022-08-28T02:26:52.631Z,74.84
2022-08-28T02:27:52.650Z,75.04
2022-08-28T02:28:52.610Z,75.13
2022-08-28T02:29:52.629Z,75.00
2022-08-28T02:30:52.675Z,74.80
2022-08-28T02:31:52.764Z,75.00
2022-08-28T02:32:55.521Z,74.80
2022-08-28T02:33:52.596Z,75.40
2022-08-28T02:34:52.622Z,74.80
2022-08-28T02:35:52.543Z,74.80
2022-08-28T02:36:52.548Z,74.69
2022-08-28T02:37:52.509Z,74.80
2022-08-28T02:38:57.394Z,74.69
2022-08-28T02:39:53.516Z,74.80
2022-08-28T02:40:52.473Z,74.90
2022-08-28T02:41:52.451Z,74.49
2022-08-28T02:42:52.438Z,74.60
2022-08-28T02:43:52.429Z,74.40
2022-08-28T02:44:52.447Z,74.49
2022-08-28T02:45:52.429Z,74.69
2022-08-28T02:46:52.397Z,74.66
2022-08-28T02:47:52.396Z,74.36
2022-08-28T02:48:52.377Z,74.05
2022-08-28T02:49:52.374Z,74.16
2022-08-28T02:50:52.364Z,74.76
2022-08-28T02:51:52.348Z,74.60
2022-08-28T02:52:52.353Z,74.69
2022-08-28T02:53:52.313Z,74.80
2022-08-28T02:54:52.333Z,74.80
2022-08-28T02:55:52.291Z,74.80
2022-08-28T02:56:52.282Z,74.69
2022-08-28T02:57:52.271Z,74.80
2022-08-28T02:58:52.275Z,75.00
2022-08-28T02:59:52.253Z,75.00
2022-08-28T03:00:52.245Z,75.10
2022-08-28T03:01:52.285Z,75.31
2022-08-28T03:02:52.294Z,75.20
2022-08-28T03:03:52.193Z,75.00
2022-08-28T03:04:52.211Z,75.00
2022-08-28T03:05:52.174Z,75.00
2022-08-28T03:06:52.166Z,74.90
2022-08-28T03:07:52.150Z,75.10
2022-08-28T03:08:52.155Z,75.20
2022-08-28T03:09:52.142Z,74.69
2022-08-28T03:10:52.136Z,74.56
2022-08-28T03:11:52.107Z,74.69
2022-08-28T03:12:52.115Z,74.80
2022-08-28T03:13:52.087Z,74.80
2022-08-28T03:14:52.090Z,75.10
2022-08-28T03:15:52.083Z,74.90
2022-08-28T03:16:52.134Z,75.10
2022-08-28T03:17:52.043Z,74.90
2022-08-28T03:18:52.042Z,74.80
2022-08-28T03:19:52.020Z,74.80
2022-08-28T03:20:52.018Z,74.90
2022-08-28T03:21:52.898Z,75.00
2022-08-28T03:22:51.990Z,75.10
2022-08-28T03:23:51.980Z,75.40
2022-08-28T03:24:51.962Z,75.20
2022-08-28T03:25:51.972Z,75.40
2022-08-28T03:26:51.951Z,75.64
2022-08-28T03:27:51.952Z,75.64
2022-08-28T03:28:51.940Z,75.64
2022-08-28T03:29:51.924Z,75.84
2022-08-28T03:30:51.994Z,75.74
2022-08-28T03:31:51.894Z,75.95
2022-08-28T03:32:51.895Z,76.04
2022-08-28T03:33:51.866Z,75.54
2022-08-28T03:34:51.858Z,75.54
2022-08-28T03:35:51.842Z,75.31
2022-08-28T03:36:51.853Z,75.10
2022-08-28T03:37:51.816Z,75.31
2022-08-28T03:38:51.817Z,75.74
2022-08-28T03:39:51.801Z,75.40
2022-08-28T03:40:51.787Z,75.44
2022-08-28T03:41:51.795Z,75.34
2022-08-28T03:42:53.195Z,75.64
2022-08-28T03:43:51.748Z,75.74
2022-08-28T03:44:51.743Z,75.95
2022-08-28T03:45:51.771Z,75.84
2022-08-28T03:46:51.750Z,75.95
2022-08-28T03:47:51.736Z,76.08
2022-08-28T03:48:51.715Z,76.18
2022-08-28T03:49:51.693Z,76.39
2022-08-28T03:50:51.698Z,76.39
2022-08-28T03:51:51.677Z,76.48
2022-08-28T03:52:51.657Z,76.69
2022-08-28T03:53:51.652Z,76.69
2022-08-28T03:54:51.627Z,76.59
2022-08-28T03:55:51.621Z,76.59
2022-08-28T03:56:51.623Z,76.69
2022-08-28T03:57:51.595Z,76.69
2022-08-28T03:58:51.600Z,76.59
2022-08-28T03:59:51.579Z,76.69
2022-08-28T04:00:51.565Z,76.79
2022-08-28T04:01:51.651Z,76.79
2022-08-28T04:02:51.592Z,76.79
2022-08-28T04:03:51.533Z,76.89
2022-08-28T04:04:51.521Z,76.99
2022-08-28T04:05:51.510Z,77.33
2022-08-28T04:06:51.496Z,77.53
2022-08-28T04:07:51.526Z,77.64
2022-08-28T04:08:51.473Z,77.84
2022-08-28T04:09:51.467Z,78.04
2022-08-28T04:10:51.458Z,77.73
2022-08-28T04:11:51.436Z,77.84
2022-08-28T04:12:51.444Z,77.73
2022-08-28T04:13:51.420Z,77.53
2022-08-28T04:14:51.400Z,77.43
2022-08-28T04:15:51.399Z,77.64
2022-08-28T04:16:51.473Z,77.39
2022-08-28T04:17:51.391Z,77.09
2022-08-28T04:18:51.362Z,76.79
2022-08-28T04:19:51.439Z,77.09
2022-08-28T04:20:51.351Z,76.79
2022-08-28T04:21:51.332Z,76.59
2022-08-28T04:22:54.984Z,76.69
2022-08-28T04:23:51.331Z,75.84
2022-08-28T04:24:51.321Z,75.88
2022-08-28T04:25:51.288Z,75.98
2022-08-28T04:26:51.288Z,76.39
2022-08-28T04:27:51.276Z,75.98
2022-08-28T04:28:52.752Z,76.18
2022-08-28T04:29:51.253Z,76.28
2022-08-28T04:30:51.244Z,76.28
2022-08-28T04:31:51.294Z,76.28
2022-08-28T04:32:51.227Z,76.18
2022-08-28T04:33:51.199Z,76.28
2022-08-28T04:34:51.191Z,76.18
2022-08-28T04:35:51.183Z,76.18
2022-08-28T04:36:51.167Z,76.28
2022-08-28T04:37:51.147Z,75.98
2022-08-28T04:38:51.162Z,75.88
2022-08-28T04:39:51.130Z,75.88
2022-08-28T04:40:51.128Z,75.74
2022-08-28T04:41:51.100Z,75.74
2022-08-28T04:42:51.093Z,75.54
2022-08-28T04:43:51.077Z,75.88
2022-08-28T04:44:51.111Z,75.78
2022-08-28T04:45:52.092Z,75.78
2022-08-28T04:46:51.942Z,75.78
2022-08-28T04:47:53.003Z,75.68
2022-08-28T04:48:51.950Z,75.57
2022-08-28T04:49:52.981Z,75.57
2022-08-28T04:50:51.848Z,75.34
2022-08-28T04:51:51.163Z,75.54
2022-08-28T04:52:50.994Z,75.24
2022-08-28T04:53:51.944Z,75.13
2022-08-28T04:54:51.941Z,75.13
2022-08-28T04:55:54.280Z,74.84
2022-08-28T04:56:50.996Z,74.93
2022-08-28T04:57:51.071Z,75.04
2022-08-28T04:58:50.926Z,75.48
2022-08-28T04:59:50.933Z,75.78
2022-08-28T05:00:50.969Z,75.57
2022-08-28T05:01:51.565Z,75.98
2022-08-28T05:02:50.901Z,75.68
2022-08-28T05:03:50.865Z,76.28
2022-08-28T05:04:50.866Z,76.62
2022-08-28T05:05:50.851Z,76.82
2022-08-28T05:06:50.859Z,76.82
2022-08-28T05:07:50.822Z,76.93
2022-08-28T05:08:50.811Z,76.82
2022-08-28T05:09:50.805Z,77.23
2022-08-28T05:10:50.806Z,77.13
2022-08-28T05:11:50.801Z,76.62
2022-08-28T05:12:50.769Z,76.72
2022-08-28T05:13:50.751Z,76.72
2022-08-28T05:14:50.760Z,76.52
2022-08-28T05:15:50.734Z,76.18
2022-08-28T05:16:50.779Z,76.18
2022-08-28T05:17:50.768Z,76.18
2022-08-28T05:18:50.728Z,76.39
2022-08-28T05:19:50.706Z,76.48
2022-08-28T05:20:50.688Z,76.39
2022-08-28T05:21:51.625Z,76.52
2022-08-28T05:22:50.654Z,76.62
2022-08-28T05:23:50.638Z,76.62
2022-08-28T05:24:50.655Z,76.82
2022-08-28T05:25:50.627Z,77.03
2022-08-28T05:26:51.581Z,76.82
2022-08-28T05:27:50.597Z,76.62
2022-08-28T05:28:50.588Z,76.52
2022-08-28T05:29:50.594Z,76.69
2022-08-28T05:30:50.575Z,76.08
2022-08-28T05:31:50.632Z,76.18
2022-08-28T05:32:50.543Z,76.18
2022-08-28T05:33:50.549Z,76.39
2022-08-28T05:34:50.533Z,76.59
2022-08-28T05:35:50.518Z,76.28
2022-08-28T05:36:50.514Z,75.98
2022-08-28T05:37:50.671Z,75.88
2022-08-28T05:38:50.648Z,76.28
2022-08-28T05:39:50.609Z,76.18
2022-08-28T05:40:50.453Z,76.28
2022-08-28T05:41:50.646Z,76.48
2022-08-28T05:42:50.573Z,76.48
2022-08-28T05:43:50.527Z,76.28
2022-08-28T05:44:50.418Z,76.69
2022-08-28T05:45:50.443Z,76.48
2022-08-28T05:46:50.399Z,76.39
2022-08-28T05:47:50.371Z,75.64
2022-08-28T05:48:50.370Z,75.64
2022-08-28T05:49:50.372Z,75.54
2022-08-28T05:50:50.354Z,74.90
2022-08-28T05:51:50.341Z,74.69
2022-08-28T05:52:50.326Z,74.40
2022-08-28T05:53:50.307Z,74.63
2022-08-28T05:54:50.297Z,74.93
2022-08-28T05:55:51.876Z,74.63
2022-08-28T05:56:50.286Z,74.69
2022-08-28T05:57:50.269Z,74.49
2022-08-28T05:58:50.270Z,74.49
2022-08-28T05:59:50.264Z,73.89
2022-08-28T06:00:50.228Z,73.96
2022-08-28T06:01:50.301Z,73.85
2022-08-28T06:02:50.209Z,73.58
2022-08-28T06:03:50.261Z,74.66
2022-08-28T06:04:50.186Z,74.05
2022-08-28T06:05:50.181Z,73.05
2022-08-28T06:06:50.163Z,74.66
2022-08-28T06:07:50.177Z,73.62
2022-08-28T06:08:58.277Z,72.41
2022-08-28T06:09:51.131Z,73.18
2022-08-28T06:10:50.847Z,73.18
2022-08-28T06:11:50.109Z,71.94
2022-08-28T06:12:50.121Z,70.83
2022-08-28T06:13:50.079Z,71.23
2022-08-28T06:14:50.067Z,70.83
2022-08-28T06:15:50.098Z,71.23
2022-08-28T06:16:51.024Z,71.44
2022-08-28T06:17:50.058Z,71.13
2022-08-28T06:18:50.038Z,71.13
2022-08-28T06:19:50.016Z,70.79
2022-08-28T06:20:49.996Z,70.09
2022-08-28T06:21:50.018Z,70.12
2022-08-28T06:22:49.998Z,70.32
2022-08-28T06:23:49.976Z,70.42
2022-08-28T06:24:50.006Z,70.73
2022-08-28T06:25:49.949Z,70.83
2022-08-28T06:26:49.942Z,71.03
2022-08-28T06:27:49.958Z,71.03
2022-08-28T06:28:49.918Z,71.13
2022-08-28T06:29:49.926Z,70.97
2022-08-28T06:31:17.828Z,71.47
2022-08-28T06:31:50.925Z,71.57
2022-08-28T06:32:49.864Z,71.57
2022-08-28T06:33:49.871Z,72.00
2022-08-28T06:34:49.863Z,72.00
2022-08-28T06:35:49.855Z,71.91
2022-08-28T06:36:53.804Z,72.11
2022-08-28T06:37:49.824Z,72.44
2022-08-28T06:38:49.803Z,72.85
2022-08-28T06:39:49.817Z,73.35
2022-08-28T06:40:49.775Z,73.25
2022-08-28T06:41:49.775Z,73.42
2022-08-28T06:42:49.775Z,72.38
2022-08-28T06:43:50.244Z,72.88
2022-08-28T06:44:49.739Z,71.73
2022-08-28T06:45:49.814Z,70.79
2022-08-28T06:46:49.706Z,70.36
2022-08-28T06:47:49.725Z,69.85
2022-08-28T06:48:49.692Z,68.82
2022-08-28T06:49:49.681Z,69.05
2022-08-28T06:50:49.681Z,69.45
2022-08-28T06:51:49.657Z,69.56
2022-08-28T06:52:49.647Z,69.65
2022-08-28T06:53:49.658Z,70.06
2022-08-28T06:54:55.588Z,69.32
2022-08-28T06:55:50.648Z,68.62
2022-08-28T06:56:49.600Z,69.32
2022-08-28T06:57:49.592Z,68.71
2022-08-28T06:58:49.947Z,68.62
2022-08-28T06:59:49.590Z,68.51
2022-08-28T07:00:55.936Z,68.21
2022-08-28T07:01:50.696Z,68.01
2022-08-28T07:02:49.595Z,68.24
2022-08-28T07:03:49.541Z,68.44
2022-08-28T07:04:49.535Z,69.15
2022-08-28T07:05:49.504Z,68.85
2022-08-28T07:06:53.798Z,68.95
2022-08-28T07:07:50.487Z,68.91
2022-08-28T07:08:49.475Z,68.41
2022-08-28T07:09:49.470Z,68.21
2022-08-28T07:10:49.445Z,67.51
2022-08-28T07:11:49.447Z,67.21
2022-08-28T07:12:49.424Z,67.64
2022-08-28T07:13:49.416Z,68.15
2022-08-28T07:14:49.452Z,68.15
2022-08-28T07:15:49.521Z,68.24
2022-08-28T07:16:49.441Z,68.24
2022-08-28T07:17:49.391Z,68.24
2022-08-28T07:18:49.372Z,68.65
2022-08-28T07:19:49.370Z,68.65
2022-08-28T07:20:49.373Z,68.95
2022-08-28T07:21:49.350Z,68.98
2022-08-28T07:22:49.315Z,70.22
2022-08-28T07:23:49.320Z,70.22
2022-08-28T07:24:49.307Z,69.62
2022-08-28T07:25:49.301Z,69.75
2022-08-28T07:26:49.268Z,70.56
2022-08-28T07:27:49.323Z,70.56
2022-08-28T07:28:49.244Z,69.85
2022-08-28T07:29:49.233Z,70.26
2022-08-28T07:30:49.287Z,70.06
2022-08-28T07:31:49.211Z,70.36
2022-08-28T07:32:49.237Z,70.26
2022-08-28T07:33:54.021Z,69.85
2022-08-28T07:34:50.294Z,68.85
2022-08-28T07:35:49.182Z,69.25
2022-08-28T07:36:49.167Z,68.65
2022-08-28T07:37:50.106Z,69.25
2022-08-28T07:38:49.131Z,69.62
2022-08-28T07:39:49.164Z,68.11
2022-08-28T07:40:49.132Z,68.14
2022-08-28T07:41:49.119Z,68.44
2022-08-28T07:42:49.087Z,68.44
2022-08-28T07:43:49.100Z,67.30
2022-08-28T07:44:49.061Z,67.20
2022-08-28T07:45:51.099Z,67.40
2022-08-28T07:46:49.070Z,66.97
2022-08-28T07:47:49.067Z,66.13
2022-08-28T07:48:49.024Z,65.12
2022-08-28T07:49:49.038Z,64.79
2022-08-28T07:50:49.067Z,65.90
2022-08-28T07:51:49.002Z,65.06
2022-08-28T07:52:49.983Z,63.05
2022-08-28T07:53:48.967Z,63.42
2022-08-28T07:54:48.988Z,63.82
2022-08-28T07:55:49.003Z,63.53
2022-08-28T07:56:48.962Z,63.22
2022-08-28T07:57:48.948Z,63.62
2022-08-28T07:58:48.920Z,63.62
2022-08-28T07:59:48.922Z,63.02
2022-08-28T08:00:48.907Z,63.82
2022-08-28T08:01:48.978Z,62.92
2022-08-28T08:02:48.881Z,63.22
2022-08-28T08:03:48.969Z,63.42
2022-08-28T08:04:48.902Z,63.82
2022-08-28T08:05:48.863Z,61.61
2022-08-28T08:06:48.817Z,62.22
2022-08-28T08:07:48.833Z,63.42
2022-08-28T08:08:48.832Z,63.53
2022-08-28T08:09:48.847Z,62.92
2022-08-28T08:10:48.770Z,62.32
2022-08-28T08:11:49.035Z,62.35
2022-08-28T08:12:48.758Z,63.05
2022-08-28T08:13:50.897Z,62.85
2022-08-28T08:14:48.804Z,63.35
2022-08-28T08:15:48.785Z,63.05
2022-08-28T08:16:48.750Z,62.32
2022-08-28T08:17:48.710Z,63.82
2022-08-28T08:18:48.723Z,62.32
2022-08-28T08:19:48.677Z,62.72
2022-08-28T08:20:48.679Z,62.22
2022-08-28T08:21:53.266Z,63.15
2022-08-28T08:22:49.648Z,62.95
2022-08-28T08:23:48.659Z,63.15
2022-08-28T08:24:48.625Z,63.28
2022-08-28T08:25:48.622Z,63.89
2022-08-28T08:26:56.540Z,64.09
2022-08-28T08:27:49.704Z,64.09
2022-08-28T08:28:49.520Z,64.09
2022-08-28T08:29:48.611Z,64.09
2022-08-28T08:30:48.637Z,63.99
2022-08-28T08:31:48.565Z,64.16
2022-08-28T08:32:48.550Z,62.85
2022-08-28T08:33:49.477Z,63.53
2022-08-28T08:34:48.593Z,62.82
2022-08-28T08:35:48.501Z,62.62
2022-08-28T08:36:48.519Z,62.59
2022-08-28T08:37:48.512Z,62.99
2022-08-28T08:38:48.476Z,63.09
2022-08-28T08:39:49.502Z,62.06
2022-08-28T08:40:48.504Z,61.49
2022-08-28T08:41:49.341Z,61.49
2022-08-28T08:42:48.449Z,61.49
2022-08-28T08:43:48.421Z,61.55
2022-08-28T08:44:48.403Z,61.69
2022-08-28T08:45:48.453Z,61.88
2022-08-28T08:46:48.380Z,61.69
2022-08-28T08:47:48.522Z,62.08
2022-08-28T08:48:48.366Z,62.49
2022-08-28T08:49:48.348Z,62.39
2022-08-28T08:50:48.371Z,61.69
2022-08-28T08:51:48.317Z,61.69
2022-08-28T08:52:48.336Z,62.39
2022-08-28T08:53:48.341Z,61.15
2022-08-28T08:54:48.341Z,60.45
2022-08-28T08:55:48.289Z,61.49
2022-08-28T08:56:48.266Z,61.46
2022-08-28T08:57:49.310Z,60.96
2022-08-28T08:58:48.240Z,61.25
2022-08-28T08:59:48.272Z,61.29
2022-08-28T09:00:48.241Z,61.55
2022-08-28T09:01:48.312Z,61.25
2022-08-28T09:02:48.241Z,61.15
2022-08-28T09:03:48.306Z,60.25
2022-08-28T09:04:48.194Z,60.58
2022-08-28T09:05:48.178Z,60.68
2022-08-28T09:06:48.192Z,61.15
2022-08-28T09:07:52.661Z,60.35
2022-08-28T09:08:49.168Z,60.25
2022-08-28T09:09:48.131Z,60.82
2022-08-28T09:10:48.116Z,60.62
2022-08-28T09:11:52.257Z,60.12
2022-08-28T09:12:49.104Z,60.25
2022-08-28T09:13:48.139Z,60.25
2022-08-28T09:14:48.068Z,60.52
2022-08-28T09:15:50.864Z,59.22
2022-08-28T09:16:48.053Z,59.95
2022-08-28T09:17:48.055Z,60.65
2022-08-28T09:18:48.082Z,60.02
2022-08-28T09:19:48.045Z,59.32
2022-08-28T09:20:48.010Z,59.19
2022-08-28T09:21:48.004Z,58.99
2022-08-28T09:22:47.983Z,58.76
2022-08-28T09:23:47.972Z,58.53
2022-08-28T09:24:48.346Z,58.26
2022-08-28T09:25:47.976Z,58.66
2022-08-28T09:26:47.961Z,58.53
2022-08-28T09:27:47.964Z,57.63
2022-08-28T09:28:48.862Z,58.46
2022-08-28T09:29:48.858Z,58.03
2022-08-28T09:30:47.909Z,58.73
2022-08-28T09:31:47.888Z,57.73
2022-08-28T09:32:47.956Z,57.63
2022-08-28T09:33:47.875Z,57.83
2022-08-28T09:34:47.869Z,57.23
2022-08-28T09:35:47.880Z,56.05
2022-08-28T09:36:47.830Z,57.76
2022-08-28T09:37:47.815Z,57.93
2022-08-28T09:38:47.800Z,57.63
2022-08-28T09:39:48.985Z,57.10
2022-08-28T09:40:47.789Z,56.70
2022-08-28T09:41:47.806Z,57.50
2022-08-28T09:42:47.800Z,56.77
2022-08-28T09:43:47.777Z,56.67
2022-08-28T09:44:47.773Z,56.55
2022-08-28T09:45:47.728Z,55.55
2022-08-28T09:46:47.710Z,55.32
2022-08-28T09:47:48.891Z,55.02
2022-08-28T09:48:47.694Z,54.42
2022-08-28T09:49:47.705Z,54.85
2022-08-28T09:50:47.678Z,55.77
2022-08-28T09:51:47.654Z,56.37
2022-08-28T09:52:47.656Z,57.53
2022-08-28T09:53:47.653Z,57.73
2022-08-28T09:54:47.636Z,58.11
2022-08-28T09:55:47.663Z,57.80
2022-08-28T09:56:47.614Z,57.07
2022-08-28T09:57:47.631Z,56.57
2022-08-28T09:58:47.598Z,56.98
2022-08-28T09:59:47.580Z,57.37
2022-08-28T10:00:47.576Z,56.37
2022-08-28T10:01:47.575Z,55.74
2022-08-28T10:02:47.526Z,55.15
2022-08-28T10:03:47.517Z,55.32
2022-08-28T10:04:47.596Z,54.62
2022-08-28T10:05:47.520Z,54.35
2022-08-28T10:06:47.488Z,55.22
2022-08-28T10:07:47.480Z,54.82
2022-08-28T10:08:47.473Z,55.62
2022-08-28T10:09:48.119Z,55.12
2022-08-28T10:10:47.457Z,54.90
2022-08-28T10:11:47.440Z,54.69
2022-08-28T10:12:47.421Z,54.19
2022-08-28T10:13:47.441Z,54.06
2022-08-28T10:14:47.453Z,53.57
2022-08-28T10:15:47.456Z,53.47
2022-08-28T10:16:47.384Z,52.67
2022-08-28T10:17:47.366Z,52.67
2022-08-28T10:18:47.381Z,53.30
2022-08-28T10:19:47.342Z,54.19
2022-08-28T10:20:47.335Z,52.72
2022-08-28T10:21:47.322Z,53.85
2022-08-28T10:22:47.328Z,54.05
2022-08-28T10:23:47.315Z,54.44
2022-08-28T10:24:47.296Z,54.85
2022-08-28T10:25:47.276Z,54.44
2022-08-28T10:26:47.264Z,54.55
2022-08-28T10:27:47.252Z,54.74
2022-08-28T10:28:47.264Z,54.55
2022-08-28T10:29:47.229Z,54.22
2022-08-28T10:30:47.334Z,53.55
2022-08-28T10:31:47.235Z,54.67
2022-08-28T10:32:47.204Z,54.44
2022-08-28T10:33:47.204Z,54.44
2022-08-28T10:34:47.198Z,53.97
2022-08-28T10:35:47.182Z,54.67
2022-08-28T10:36:47.172Z,54.57
2022-08-28T10:37:47.145Z,55.77
2022-08-28T10:38:53.030Z,54.87
2022-08-28T10:39:48.158Z,55.37
2022-08-28T10:40:47.116Z,55.27
2022-08-28T10:41:47.109Z,54.70
2022-08-28T10:42:47.116Z,54.70
2022-08-28T10:43:48.130Z,55.27
2022-08-28T10:44:47.085Z,54.27
2022-08-28T10:45:48.116Z,55.17
2022-08-28T10:46:49.183Z,54.24
2022-08-28T10:47:47.063Z,54.64
2022-08-28T10:48:47.041Z,53.74
2022-08-28T10:49:47.028Z,53.74
2022-08-28T10:50:47.018Z,53.94
2022-08-28T10:51:47.005Z,53.94
2022-08-28T10:52:46.979Z,54.17
2022-08-28T10:53:46.979Z,54.27
2022-08-28T10:54:46.985Z,54.39
2022-08-28T10:55:46.960Z,55.70
2022-08-28T10:56:48.259Z,55.80
2022-08-28T10:57:47.952Z,54.77
2022-08-28T10:58:46.945Z,55.17
2022-08-28T10:59:46.923Z,54.44
2022-08-28T11:00:46.892Z,53.87
2022-08-28T11:01:46.989Z,54.39
2022-08-28T11:02:46.919Z,55.10
2022-08-28T11:03:46.929Z,56.00
2022-08-28T11:04:46.941Z,54.20
2022-08-28T11:05:53.682Z,55.00
2022-08-28T11:06:47.835Z,55.47
2022-08-28T11:07:46.845Z,54.64
2022-08-28T11:08:46.813Z,54.44
2022-08-28T11:09:46.785Z,54.14
2022-08-28T11:10:46.793Z,55.12
2022-08-28T11:11:46.805Z,54.42
2022-08-28T11:12:46.794Z,54.60
2022-08-28T11:13:46.808Z,54.29
2022-08-28T11:14:48.418Z,52.89
2022-08-28T11:15:46.727Z,53.19
2022-08-28T11:16:46.812Z,54.79
2022-08-28T11:17:46.749Z,54.06
2022-08-28T11:18:46.709Z,53.87
2022-08-28T11:19:51.665Z,52.97
2022-08-28T11:20:47.680Z,52.77
2022-08-28T11:21:46.663Z,54.06
2022-08-28T11:22:46.672Z,53.07
2022-08-28T11:23:46.637Z,54.44
2022-08-28T11:24:46.641Z,52.44
2022-08-28T11:25:46.642Z,53.74
2022-08-28T11:26:46.663Z,53.52
2022-08-28T11:27:46.595Z,53.31
2022-08-28T11:28:46.599Z,51.42
2022-08-28T11:29:46.573Z,52.02
2022-08-28T11:30:46.645Z,50.95
2022-08-28T11:31:46.563Z,52.04
2022-08-28T11:32:46.963Z,50.54
2022-08-28T11:33:46.531Z,50.65
2022-08-28T11:34:46.551Z,52.04
2022-08-28T11:35:46.527Z,51.92
2022-08-28T11:36:46.505Z,50.95
2022-08-28T11:37:46.511Z,49.87
2022-08-28T11:38:46.489Z,50.79
2022-08-28T11:39:46.499Z,50.99
2022-08-28T11:40:46.474Z,51.72
2022-08-28T11:41:46.440Z,52.02
2022-08-28T11:42:46.439Z,52.82
2022-08-28T11:43:46.493Z,52.22
2022-08-28T11:44:46.429Z,51.39
2022-08-28T11:45:46.978Z,52.39
2022-08-28T11:46:46.419Z,51.39
2022-08-28T11:47:46.532Z,52.09
2022-08-28T11:48:46.404Z,51.97
2022-08-28T11:49:46.451Z,52.27
2022-08-28T11:50:46.355Z,51.84
2022-08-28T11:51:46.364Z,50.27
2022-08-28T11:52:46.334Z,51.57
2022-08-28T11:53:46.323Z,51.67
2022-08-28T11:54:46.320Z,51.87
2022-08-28T11:55:46.307Z,52.34
2022-08-28T11:56:46.288Z,50.89
2022-08-28T11:57:46.305Z,51.72
2022-08-28T11:58:46.258Z,52.29
2022-08-28T11:59:46.258Z,52.09
2022-08-28T12:00:46.254Z,51.59
2022-08-28T12:01:46.224Z,52.00
2022-08-28T12:02:46.259Z,53.19
2022-08-28T12:03:46.201Z,52.89
2022-08-28T12:04:46.275Z,52.67
2022-08-28T12:05:46.186Z,51.17
2022-08-28T12:06:46.230Z,51.57
2022-08-28T12:07:46.151Z,51.39
2022-08-28T12:08:46.169Z,52.39
2022-08-28T12:09:46.142Z,53.09
2022-08-28T12:10:46.125Z,52.69
2022-08-28T12:11:46.130Z,50.77
2022-08-28T12:12:46.249Z,51.37
2022-08-28T12:13:46.125Z,51.47
2022-08-28T12:14:46.095Z,50.77
2022-08-28T12:15:46.115Z,51.64
2022-08-28T12:16:46.055Z,51.15
2022-08-28T12:17:46.051Z,50.54
2022-08-28T12:18:46.055Z,48.75
2022-08-28T12:19:55.215Z,50.24
2022-08-28T12:20:47.017Z,50.12
2022-08-28T12:21:46.025Z,49.82
2022-08-28T12:22:46.009Z,49.42
2022-08-28T12:23:46.000Z,48.82
2022-08-28T12:24:45.987Z,48.35
2022-08-28T12:25:46.154Z,50.45
2022-08-28T12:26:45.952Z,48.45
2022-08-28T12:27:45.951Z,49.44
2022-08-28T12:28:45.957Z,49.55
2022-08-28T12:29:45.931Z,49.15
2022-08-28T12:30:45.961Z,48.35
2022-08-28T12:31:45.917Z,48.37
2022-08-28T12:32:45.887Z,48.97
2022-08-28T12:33:45.890Z,49.85
2022-08-28T12:34:45.892Z,48.94
2022-08-28T12:35:45.860Z,49.44
2022-08-28T12:36:48.955Z,50.04
2022-08-28T12:37:51.626Z,48.65
2022-08-28T12:38:47.786Z,49.05
2022-08-28T12:39:45.817Z,47.67
2022-08-28T12:40:45.820Z,48.37
2022-08-28T12:41:45.808Z,49.67
2022-08-28T12:42:45.775Z,48.45
2022-08-28T12:43:46.596Z,49.05
2022-08-28T12:44:45.791Z,49.15
2022-08-28T12:45:45.796Z,48.35
2022-08-28T12:46:45.746Z,48.85
2022-08-28T12:47:45.773Z,48.63
2022-08-28T12:48:45.750Z,48.13
2022-08-28T12:49:46.049Z,49.12
2022-08-28T12:50:45.761Z,47.42
2022-08-28T12:51:45.730Z,48.02
2022-08-28T12:52:45.693Z,48.20